createdAt,value
2019-03-27T00:01:33.739Z,50.28
2019-03-27T00:04:04.122Z,50.13
2019-03-27T00:06:34.451Z,50.16
2019-03-27T00:09:05.640Z,50.40
2019-03-27T00:11:36.133Z,50.04
2019-03-27T00:14:06.248Z,50.14
2019-03-27T00:16:36.325Z,50.01
2019-03-27T00:19:06.573Z,49.97
2019-03-27T00:21:36.752Z,49.81
2019-03-27T00:24:07.118Z,50.00
2019-03-27T00:26:37.392Z,49.90
2019-03-27T00:29:07.676Z,49.74
2019-03-27T00:31:37.826Z,50.03
2019-03-27T00:34:08.045Z,49.63
2019-03-27T00:36:38.333Z,49.60
2019-03-27T00:39:09.504Z,49.60
2019-03-27T00:41:39.706Z,49.53
2019-03-27T00:44:10.036Z,49.73
2019-03-27T00:46:40.006Z,49.55
2019-03-27T00:49:10.288Z,49.67
2019-03-27T00:51:40.262Z,50.04
2019-03-27T00:54:10.256Z,49.46
2019-03-27T00:56:40.502Z,49.48
2019-03-27T00:59:10.626Z,49.50
2019-03-27T01:01:40.650Z,49.78
2019-03-27T01:04:10.775Z,49.82
2019-03-27T01:06:41.132Z,50.01
2019-03-27T01:09:11.464Z,50.29
2019-03-27T01:11:41.544Z,50.56
2019-03-27T01:14:11.659Z,49.89
2019-03-27T01:16:41.902Z,50.49
2019-03-27T01:19:12.046Z,50.63
2019-03-27T01:21:42.217Z,50.41
2019-03-27T01:24:12.173Z,50.65
2019-03-27T01:26:42.412Z,50.50
2019-03-27T01:29:12.352Z,50.69
2019-03-27T01:31:42.496Z,50.16
2019-03-27T01:34:12.619Z,50.53
2019-03-27T01:36:42.931Z,50.74
2019-03-27T01:39:12.942Z,50.83
2019-03-27T01:41:43.181Z,50.68
2019-03-27T01:44:13.323Z,50.64
2019-03-27T01:46:43.422Z,50.51
2019-03-27T01:49:13.406Z,50.55
2019-03-27T01:51:43.657Z,50.40
2019-03-27T01:54:13.666Z,50.69
2019-03-27T01:56:43.836Z,50.37
2019-03-27T01:59:14.997Z,50.64
2019-03-27T02:01:45.044Z,50.66
2019-03-27T02:04:15.025Z,50.57
2019-03-27T02:06:45.445Z,50.48
2019-03-27T02:09:15.850Z,50.67
2019-03-27T02:11:46.270Z,50.41
2019-03-27T02:14:16.732Z,50.74
2019-03-27T02:16:47.128Z,51.01
2019-03-27T02:19:17.675Z,50.96
2019-03-27T02:21:48.173Z,50.59
2019-03-27T02:24:18.749Z,50.96
2019-03-27T02:26:49.036Z,51.35
2019-03-27T02:29:19.178Z,51.53
2019-03-27T02:31:49.254Z,51.47
2019-03-27T02:34:19.440Z,51.80
2019-03-27T02:36:50.024Z,51.63
2019-03-27T02:39:20.290Z,51.81
2019-03-27T02:41:50.709Z,52.09
2019-03-27T02:44:20.861Z,52.23
2019-03-27T02:46:52.112Z,52.15
2019-03-27T02:49:22.399Z,52.22
2019-03-27T02:51:52.663Z,52.38
2019-03-27T02:54:22.929Z,52.44
2019-03-27T02:56:53.157Z,52.52
2019-03-27T02:59:23.372Z,52.18
2019-03-27T03:01:53.490Z,51.97
2019-03-27T03:04:23.832Z,52.24
2019-03-27T03:06:54.239Z,51.87
2019-03-27T03:09:24.497Z,52.21
2019-03-27T03:11:54.800Z,52.67
2019-03-27T03:14:24.999Z,52.50
2019-03-27T03:16:55.257Z,52.59
2019-03-27T03:19:25.582Z,52.56
2019-03-27T03:21:55.782Z,52.60
2019-03-27T03:24:26.025Z,52.39
2019-03-27T03:26:56.306Z,52.69
2019-03-27T03:29:26.522Z,53.35
2019-03-27T03:31:56.994Z,53.29
2019-03-27T03:34:27.118Z,53.25
2019-03-27T03:36:58.634Z,53.53
2019-03-27T03:39:30.166Z,53.60
2019-03-27T03:42:00.492Z,54.08
2019-03-27T03:44:30.918Z,54.35
2019-03-27T03:47:01.291Z,55.08
2019-03-27T03:49:31.658Z,54.69
2019-03-27T03:52:02.025Z,54.73
2019-03-27T03:54:32.634Z,55.01
2019-03-27T03:57:03.922Z,55.11
2019-03-27T03:59:34.722Z,55.44
2019-03-27T04:02:05.393Z,55.33
2019-03-27T04:04:37.453Z,55.30
2019-03-27T04:07:07.774Z,55.28
2019-03-27T04:09:38.262Z,55.47
2019-03-27T04:12:08.628Z,55.58
2019-03-27T04:14:38.610Z,55.63
2019-03-27T04:17:16.867Z,55.92
2019-03-27T04:19:41.709Z,56.23
2019-03-27T04:22:11.941Z,56.38
2019-03-27T04:24:42.195Z,57.08
2019-03-27T04:27:12.477Z,56.18
2019-03-27T04:29:42.682Z,56.34
2019-03-27T04:32:13.128Z,56.30
2019-03-27T04:34:46.916Z,56.92
2019-03-27T04:37:15.216Z,56.85
2019-03-27T04:39:45.738Z,56.95
2019-03-27T04:42:16.112Z,56.93
2019-03-27T04:44:46.308Z,57.02
2019-03-27T04:47:31.438Z,57.25
2019-03-27T04:49:50.368Z,57.53
2019-03-27T04:52:20.742Z,57.29
2019-03-27T04:54:51.088Z,57.02
2019-03-27T04:57:21.715Z,56.92
2019-03-27T04:59:51.942Z,57.59
2019-03-27T05:02:22.140Z,57.51
2019-03-27T05:04:52.585Z,57.14
2019-03-27T05:07:22.890Z,57.14
2019-03-27T05:09:53.244Z,57.28
2019-03-27T05:12:23.520Z,57.26
2019-03-27T05:14:53.684Z,56.52
2019-03-27T05:17:23.911Z,56.24
2019-03-27T05:19:54.090Z,55.77
2019-03-27T05:22:24.393Z,54.67
2019-03-27T05:24:54.548Z,54.20
2019-03-27T05:27:24.944Z,53.21
2019-03-27T05:29:54.972Z,53.30
2019-03-27T05:32:25.103Z,53.23
2019-03-27T05:34:55.256Z,52.63
2019-03-27T05:37:26.429Z,51.68
2019-03-27T05:39:56.745Z,51.59
2019-03-27T05:42:26.774Z,50.66
2019-03-27T05:44:56.933Z,48.56
2019-03-27T05:47:27.253Z,47.85
2019-03-27T05:49:57.605Z,47.04
2019-03-27T05:52:27.807Z,47.00
2019-03-27T05:54:57.975Z,46.35
2019-03-27T05:57:28.021Z,46.56
2019-03-27T05:59:58.236Z,46.22
2019-03-27T06:02:28.584Z,45.10
2019-03-27T06:04:58.949Z,43.92
2019-03-27T06:07:29.256Z,44.37
2019-03-27T06:09:59.629Z,42.89
2019-03-27T06:12:29.719Z,43.51
2019-03-27T06:15:00.077Z,42.17
2019-03-27T06:17:30.428Z,42.35
2019-03-27T06:20:00.625Z,42.19
2019-03-27T06:22:30.890Z,40.99
2019-03-27T06:25:01.295Z,41.71
2019-03-27T06:27:31.544Z,40.85
2019-03-27T06:30:01.998Z,41.33
2019-03-27T06:32:32.639Z,41.23
2019-03-27T06:35:03.039Z,41.16
2019-03-27T06:37:33.429Z,40.53
2019-03-27T06:40:03.629Z,40.53
2019-03-27T06:42:33.985Z,41.36
2019-03-27T06:45:04.799Z,39.56
2019-03-27T06:47:35.161Z,39.22
2019-03-27T06:50:06.066Z,38.53
2019-03-27T06:52:36.282Z,38.14
2019-03-27T06:55:07.082Z,39.07
2019-03-27T06:57:37.494Z,38.43
2019-03-27T07:00:09.963Z,38.95
2019-03-27T07:02:40.208Z,37.35
2019-03-27T07:05:10.609Z,36.60
2019-03-27T07:07:41.020Z,37.03
2019-03-27T07:10:11.142Z,36.65
2019-03-27T07:12:41.658Z,36.94
2019-03-27T07:15:13.141Z,37.47
2019-03-27T07:17:43.442Z,35.21
2019-03-27T07:20:13.759Z,33.28
2019-03-27T07:22:43.981Z,33.13
2019-03-27T07:25:14.233Z,32.35
2019-03-27T07:27:44.589Z,32.14
2019-03-27T07:30:17.307Z,33.10
2019-03-27T07:32:47.426Z,32.67
2019-03-27T07:35:17.682Z,32.19
2019-03-27T07:37:47.945Z,32.31
2019-03-27T07:40:18.160Z,33.07
2019-03-27T07:42:48.466Z,34.42
2019-03-27T07:45:18.793Z,34.26
2019-03-27T07:47:49.068Z,34.43
2019-03-27T07:50:19.244Z,35.09
2019-03-27T07:52:49.409Z,35.64
2019-03-27T07:55:20.059Z,36.27
2019-03-27T07:57:50.294Z,36.34
2019-03-27T08:00:23.034Z,36.56
2019-03-27T08:02:53.405Z,36.47
2019-03-27T08:05:23.828Z,35.03
2019-03-27T08:07:55.075Z,34.68
2019-03-27T08:10:26.423Z,33.88
2019-03-27T08:12:56.899Z,34.07
2019-03-27T08:15:27.068Z,33.57
2019-03-27T08:17:57.352Z,32.86
2019-03-27T08:20:27.752Z,33.57
2019-03-27T08:22:58.885Z,33.67
2019-03-27T08:25:29.139Z,35.02
2019-03-27T08:27:59.430Z,34.84
2019-03-27T08:30:29.613Z,35.26
2019-03-27T08:33:01.040Z,34.79
2019-03-27T08:35:31.054Z,33.98
2019-03-27T08:38:01.376Z,34.17
2019-03-27T08:40:31.529Z,34.85
2019-03-27T08:43:01.963Z,32.51
2019-03-27T08:45:32.278Z,33.83
2019-03-27T08:48:02.428Z,34.20
2019-03-27T08:50:32.744Z,33.96
2019-03-27T08:53:03.054Z,32.68
2019-03-27T08:55:33.446Z,32.61
2019-03-27T08:58:03.906Z,34.01
2019-03-27T09:00:50.186Z,33.10
2019-03-27T09:03:20.646Z,32.39
2019-03-27T09:05:51.020Z,33.12
2019-03-27T09:08:21.451Z,31.58
2019-03-27T09:10:51.695Z,31.46
2019-03-27T09:13:22.082Z,32.33
2019-03-27T09:15:53.363Z,30.66
2019-03-27T09:18:23.657Z,31.44
2019-03-27T09:20:53.946Z,31.40
2019-03-27T09:23:24.314Z,29.79
2019-03-27T09:25:54.655Z,29.42
2019-03-27T09:28:25.052Z,29.31
2019-03-27T09:30:55.528Z,29.85
2019-03-27T09:33:25.942Z,29.29
2019-03-27T09:35:56.360Z,30.00
2019-03-27T09:38:26.581Z,28.61
2019-03-27T09:40:56.923Z,29.51
2019-03-27T09:43:27.061Z,29.31
2019-03-27T09:45:57.290Z,27.94
2019-03-27T09:48:27.793Z,27.61
2019-03-27T09:50:58.144Z,27.23
2019-03-27T09:53:28.557Z,27.95
2019-03-27T09:55:58.939Z,27.62
2019-03-27T09:58:29.095Z,28.18
2019-03-27T10:01:00.493Z,26.20
2019-03-27T10:03:31.832Z,27.44
2019-03-27T10:06:02.112Z,27.10
2019-03-27T10:08:32.543Z,26.23
2019-03-27T10:11:02.845Z,26.09
2019-03-27T10:13:33.365Z,26.34
2019-03-27T10:16:03.522Z,27.19
2019-03-27T10:18:33.639Z,28.01
2019-03-27T10:21:04.137Z,29.40
2019-03-27T10:23:34.385Z,28.85
2019-03-27T10:26:04.833Z,28.20
2019-03-27T10:28:35.190Z,29.13
2019-03-27T10:31:06.226Z,27.96
2019-03-27T10:33:36.693Z,28.19
2019-03-27T10:36:06.923Z,28.14
2019-03-27T10:38:37.366Z,26.93
2019-03-27T10:41:07.696Z,27.08
2019-03-27T10:43:38.040Z,28.37
2019-03-27T10:46:09.246Z,28.67
2019-03-27T10:48:51.768Z,28.11
2019-03-27T10:51:11.700Z,29.28
2019-03-27T10:53:42.226Z,28.33
2019-03-27T10:56:12.692Z,29.60
2019-03-27T10:58:43.177Z,29.82
2019-03-27T11:01:13.578Z,29.04
2019-03-27T11:03:43.876Z,29.67
2019-03-27T11:06:14.190Z,28.53
2019-03-27T11:08:44.589Z,29.28
2019-03-27T11:11:14.708Z,28.63
2019-03-27T11:13:45.159Z,28.53
2019-03-27T11:16:15.727Z,28.76
2019-03-27T11:18:46.120Z,29.09
2019-03-27T11:21:16.375Z,28.81
2019-03-27T11:23:46.668Z,28.29
2019-03-27T11:26:18.264Z,29.05
2019-03-27T11:28:48.642Z,29.03
2019-03-27T11:31:18.905Z,28.49
2019-03-27T11:33:49.225Z,29.82
2019-03-27T11:36:19.695Z,29.07
2019-03-27T11:38:50.025Z,29.51
2019-03-27T11:41:20.418Z,27.52
2019-03-27T11:43:55.171Z,28.64
2019-03-27T11:46:22.636Z,26.60
2019-03-27T11:48:52.861Z,26.20
2019-03-27T11:51:23.179Z,27.67
2019-03-27T11:53:53.697Z,25.97
2019-03-27T11:56:24.174Z,26.04
2019-03-27T11:58:54.290Z,26.13
2019-03-27T12:01:24.770Z,25.30
2019-03-27T12:03:55.252Z,26.94
2019-03-27T12:06:25.456Z,26.97
2019-03-27T12:08:55.892Z,27.93
2019-03-27T12:11:26.268Z,30.77
2019-03-27T12:16:45.908Z,29.54
2019-03-27T12:19:16.136Z,30.10
2019-03-27T12:21:46.442Z,30.13
2019-03-27T12:24:16.576Z,30.07
2019-03-27T12:26:46.585Z,30.87
2019-03-27T12:29:18.152Z,30.12
2019-03-27T12:31:48.396Z,28.79
2019-03-27T12:34:18.487Z,30.08
2019-03-27T12:36:48.618Z,30.81
2019-03-27T12:39:18.890Z,29.33
2019-03-27T12:41:49.006Z,31.12
2019-03-27T12:44:19.337Z,30.84
2019-03-27T12:46:51.733Z,29.64
2019-03-27T12:49:20.974Z,29.84
2019-03-27T12:51:50.979Z,30.67
2019-03-27T12:54:21.075Z,29.69
2019-03-27T12:56:51.086Z,29.43
2019-03-27T12:59:21.066Z,28.99
2019-03-27T13:01:51.194Z,29.81
2019-03-27T13:04:21.351Z,28.71
2019-03-27T13:06:51.391Z,29.86
2019-03-27T13:09:21.367Z,29.28
2019-03-27T13:11:51.519Z,29.44
2019-03-27T13:14:21.577Z,28.95
2019-03-27T13:16:52.374Z,30.23
2019-03-27T13:19:22.573Z,28.97
2019-03-27T13:21:52.571Z,29.03
2019-03-27T13:24:22.977Z,29.25
2019-03-27T13:26:53.087Z,28.86
2019-03-27T13:29:23.510Z,28.32
2019-03-27T13:31:53.513Z,28.42
2019-03-27T13:34:23.538Z,29.08
2019-03-27T13:36:53.642Z,28.48
2019-03-27T13:39:23.885Z,28.61
2019-03-27T13:41:53.989Z,28.16
2019-03-27T13:44:36.269Z,27.33
2019-03-27T13:46:55.956Z,28.82
2019-03-27T13:49:26.092Z,28.13
2019-03-27T13:51:56.260Z,28.58
2019-03-27T13:54:26.734Z,28.96
2019-03-27T13:56:56.792Z,28.58
2019-03-27T13:59:27.075Z,28.28
2019-03-27T14:01:57.428Z,28.02
2019-03-27T14:04:27.579Z,28.17
2019-03-27T14:06:57.565Z,28.17
2019-03-27T14:09:27.682Z,27.79
2019-03-27T14:11:58.030Z,27.96
2019-03-27T14:14:28.119Z,28.14
2019-03-27T14:16:58.098Z,27.63
2019-03-27T14:19:28.490Z,27.62
2019-03-27T14:21:58.894Z,28.03
2019-03-27T14:24:28.888Z,28.40
2019-03-27T14:26:58.894Z,27.89
2019-03-27T14:29:29.190Z,28.33
2019-03-27T14:31:59.721Z,28.35
2019-03-27T14:34:29.882Z,28.79
2019-03-27T14:37:00.261Z,28.06
2019-03-27T14:39:30.654Z,28.66
2019-03-27T14:42:00.872Z,27.67
2019-03-27T14:44:32.226Z,28.75
2019-03-27T14:47:02.788Z,27.96
2019-03-27T14:49:33.109Z,28.10
2019-03-27T14:52:08.351Z,28.24
2019-03-27T14:54:35.296Z,27.93
2019-03-27T14:57:05.699Z,28.35
2019-03-27T14:59:36.038Z,28.56
2019-03-27T15:02:06.705Z,27.99
2019-03-27T15:04:36.912Z,28.19
2019-03-27T15:07:07.488Z,28.23
2019-03-27T15:09:37.510Z,28.79
2019-03-27T15:12:07.658Z,28.76
2019-03-27T15:14:38.186Z,28.86
2019-03-27T15:17:08.793Z,29.39
2019-03-27T15:19:40.165Z,29.22
2019-03-27T15:22:21.815Z,29.33
2019-03-27T15:24:42.266Z,29.18
2019-03-27T15:27:13.419Z,29.43
2019-03-27T15:29:43.792Z,29.13
2019-03-27T15:32:13.780Z,29.78
2019-03-27T15:34:44.083Z,28.77
2019-03-27T15:37:14.138Z,29.21
2019-03-27T15:39:44.149Z,29.09
2019-03-27T15:42:14.393Z,29.96
2019-03-27T15:44:44.549Z,29.71
2019-03-27T15:47:17.734Z,29.07
2019-03-27T15:49:46.330Z,29.46
2019-03-27T15:52:17.525Z,29.42
2019-03-27T15:54:47.737Z,29.37
2019-03-27T15:57:18.071Z,29.80
2019-03-27T15:59:48.433Z,30.15
2019-03-27T16:02:18.634Z,29.61
2019-03-27T16:04:48.936Z,29.93
2019-03-27T16:07:49.875Z,29.90
2019-03-27T16:10:20.058Z,29.98
2019-03-27T16:12:50.645Z,29.84
2019-03-27T16:15:21.061Z,30.42
2019-03-27T16:17:51.448Z,30.54
2019-03-27T16:20:21.930Z,30.38
2019-03-27T16:22:52.340Z,30.26
2019-03-27T16:25:22.885Z,30.33
2019-03-27T16:27:53.350Z,30.42
2019-03-27T16:30:23.933Z,31.52
2019-03-27T16:32:54.232Z,30.65
2019-03-27T16:35:24.627Z,30.98
2019-03-27T16:37:55.073Z,30.90
2019-03-27T16:40:44.416Z,31.29
2019-03-27T16:43:14.901Z,31.57
2019-03-27T16:45:45.693Z,31.56
2019-03-27T16:48:16.114Z,31.32
2019-03-27T16:50:46.573Z,31.65
2019-03-27T16:53:16.869Z,31.55
2019-03-27T16:55:47.080Z,31.97
2019-03-27T16:58:18.229Z,32.17
2019-03-27T17:00:48.548Z,31.70
2019-03-27T17:03:18.750Z,32.09
2019-03-27T17:05:54.287Z,31.66
2019-03-27T17:08:22.237Z,32.18
2019-03-27T17:10:52.592Z,32.46
2019-03-27T17:13:22.917Z,31.85
2019-03-27T17:15:53.320Z,32.03
2019-03-27T17:18:23.730Z,32.39
2019-03-27T17:20:53.741Z,32.46
2019-03-27T17:23:24.232Z,32.85
2019-03-27T17:25:54.635Z,32.67
2019-03-27T17:28:25.044Z,32.79
2019-03-27T17:30:55.556Z,32.91
2019-03-27T17:33:25.887Z,33.62
2019-03-27T17:35:56.260Z,33.17
2019-03-27T17:38:26.625Z,33.56
2019-03-27T17:40:56.968Z,33.41
2019-03-27T17:43:27.430Z,33.46
2019-03-27T17:45:57.966Z,34.09
2019-03-27T17:48:28.529Z,34.40
2019-03-27T17:50:58.584Z,34.55
2019-03-27T17:53:31.909Z,34.39
2019-03-27T17:56:00.989Z,34.59
2019-03-27T17:58:31.497Z,34.98
2019-03-27T18:01:04.195Z,34.90
2019-03-27T18:03:34.438Z,34.98
2019-03-27T18:06:07.807Z,34.83
2019-03-27T18:08:38.419Z,34.86
2019-03-27T18:11:08.992Z,34.99
2019-03-27T18:13:39.264Z,35.27
2019-03-27T18:16:09.621Z,35.42
2019-03-27T18:18:39.945Z,35.42
2019-03-27T18:21:10.179Z,35.44
2019-03-27T18:23:46.263Z,36.17
2019-03-27T18:26:12.333Z,35.34
2019-03-27T18:28:42.753Z,35.87
2019-03-27T18:31:13.114Z,36.69
2019-03-27T18:33:43.508Z,35.67
2019-03-27T18:36:13.593Z,36.29
2019-03-27T18:38:45.901Z,36.91
2019-03-27T18:41:15.515Z,36.76
2019-03-27T18:43:45.942Z,36.60
2019-03-27T18:46:16.070Z,36.38
2019-03-27T18:48:46.429Z,37.05
2019-03-27T18:51:16.505Z,36.88
2019-03-27T18:53:59.097Z,37.73
2019-03-27T18:56:18.164Z,37.12
2019-03-27T18:58:48.429Z,37.45
2019-03-27T19:01:18.472Z,38.06
2019-03-27T19:03:48.962Z,37.62
2019-03-27T19:06:19.008Z,37.61
2019-03-27T19:08:49.418Z,37.76
2019-03-27T19:11:19.849Z,37.69
2019-03-27T19:13:50.230Z,38.17
2019-03-27T19:16:20.693Z,38.12
2019-03-27T19:18:50.984Z,38.08
2019-03-27T19:21:21.218Z,38.51
2019-03-27T19:23:51.620Z,39.68
2019-03-27T19:26:22.205Z,39.45
2019-03-27T19:28:53.913Z,39.53
2019-03-27T19:31:24.036Z,39.85
2019-03-27T19:33:54.453Z,39.85
2019-03-27T19:36:24.931Z,40.11
2019-03-27T19:38:55.013Z,41.13
2019-03-27T19:41:25.351Z,40.75
2019-03-27T19:43:55.404Z,41.05
2019-03-27T19:46:25.429Z,41.52
2019-03-27T19:48:55.597Z,41.47
2019-03-27T19:51:26.277Z,41.63
2019-03-27T19:53:56.425Z,41.56
2019-03-27T19:56:26.696Z,42.33
2019-03-27T19:58:56.997Z,42.48
2019-03-27T20:01:27.192Z,42.70
2019-03-27T20:03:57.196Z,43.07
2019-03-27T20:06:27.230Z,43.26
2019-03-27T20:08:57.685Z,43.43
2019-03-27T20:11:28.106Z,43.68
2019-03-27T20:13:58.539Z,43.66
2019-03-27T20:16:29.026Z,43.75
2019-03-27T20:18:59.108Z,43.87
2019-03-27T20:21:29.417Z,44.10
2019-03-27T20:23:59.493Z,44.18
2019-03-27T20:26:29.866Z,44.18
2019-03-27T20:29:00.157Z,44.29
2019-03-27T20:31:30.528Z,44.49
2019-03-27T20:34:00.658Z,44.64
2019-03-27T20:36:30.764Z,45.21
2019-03-27T20:39:01.171Z,44.83
2019-03-27T20:41:32.919Z,45.21
2019-03-27T20:44:03.356Z,45.21
2019-03-27T20:46:33.856Z,44.35
2019-03-27T20:49:04.227Z,44.88
2019-03-27T20:51:34.521Z,44.60
2019-03-27T20:54:04.821Z,44.89
2019-03-27T20:56:35.370Z,45.56
2019-03-27T20:59:05.828Z,45.22
2019-03-27T21:01:37.149Z,44.96
2019-03-27T21:04:07.278Z,44.95
2019-03-27T21:06:37.582Z,45.31
2019-03-27T21:09:08.007Z,45.76
2019-03-27T21:11:38.403Z,45.46
2019-03-27T21:14:08.518Z,45.62
2019-03-27T21:16:38.884Z,45.70
2019-03-27T21:19:09.294Z,46.41
2019-03-27T21:21:41.895Z,46.73
2019-03-27T21:24:11.397Z,45.86
2019-03-27T21:26:41.905Z,45.76
2019-03-27T21:29:12.246Z,45.80
2019-03-27T21:31:42.493Z,45.61
2019-03-27T21:34:12.920Z,46.51
2019-03-27T21:36:43.235Z,47.08
2019-03-27T21:39:13.555Z,46.72
2019-03-27T21:41:43.919Z,47.01
2019-03-27T21:44:14.182Z,47.09
2019-03-27T21:46:44.184Z,46.50
2019-03-27T21:49:14.413Z,47.11
2019-03-27T21:51:44.711Z,46.50
2019-03-27T21:54:14.796Z,47.27
2019-03-27T21:56:45.082Z,47.74
2019-03-27T21:59:15.222Z,47.55
2019-03-27T22:01:45.729Z,47.61
2019-03-27T22:04:17.051Z,48.12
2019-03-27T22:06:47.301Z,48.28
2019-03-27T22:09:17.545Z,48.19
2019-03-27T22:11:47.633Z,48.66
2019-03-27T22:14:17.639Z,49.03
2019-03-27T22:16:48.634Z,48.21
2019-03-27T22:19:18.763Z,47.63
2019-03-27T22:21:48.742Z,48.04
2019-03-27T22:24:18.849Z,47.54
2019-03-27T22:26:48.842Z,48.38
2019-03-27T22:29:18.924Z,47.56
2019-03-27T22:31:48.942Z,47.61
2019-03-27T22:34:19.290Z,46.83
2019-03-27T22:36:52.661Z,46.26
2019-03-27T22:39:24.636Z,46.71
2019-03-27T22:41:54.676Z,47.24
2019-03-27T22:44:24.744Z,46.69
2019-03-27T22:46:55.198Z,46.95
2019-03-27T22:49:25.349Z,47.25
2019-03-27T22:51:55.631Z,47.37
2019-03-27T22:54:26.106Z,47.06
2019-03-27T22:56:56.257Z,46.58
2019-03-27T22:59:26.791Z,46.75
2019-03-27T23:01:57.217Z,47.61
2019-03-27T23:04:27.626Z,46.64
2019-03-27T23:06:58.152Z,46.77
2019-03-27T23:09:28.286Z,46.41
2019-03-27T23:11:58.549Z,46.65
2019-03-27T23:14:28.707Z,46.67
2019-03-27T23:17:00.066Z,46.92
2019-03-27T23:19:30.321Z,47.91
2019-03-27T23:22:00.644Z,47.75
2019-03-27T23:24:30.982Z,48.13
2019-03-27T23:27:01.302Z,47.95
2019-03-27T23:29:31.328Z,47.58
2019-03-27T23:32:01.732Z,47.76
2019-03-27T23:34:32.125Z,47.83
2019-03-27T23:37:02.563Z,47.46
2019-03-27T23:39:32.813Z,47.92
2019-03-27T23:42:03.147Z,47.75
2019-03-27T23:44:33.465Z,47.85
2019-03-27T23:47:03.776Z,47.66
2019-03-27T23:49:34.073Z,47.89
2019-03-27T23:52:04.403Z,48.57
2019-03-27T23:54:34.679Z,48.33
2019-03-27T23:57:04.975Z,48.71
2019-03-27T23:59:35.072Z,48.59
